Time,TemperatureF,DewpointF,PressureIn,WindDirection,WindDirectionDegrees,WindSpeedMPH,WindSpeedGustMPH,Humidity,HourlyPrecipIn,Conditions,Clouds,dailyrainin,SoftwareType,DateUTC
2013-01-17 00:02:00,32.0,26.0,-100.00,NNW,335,13.0,16.0,80,-99.99,,,-99.99,,2013-01-17 06:02:00,
2013-01-17 00:12:00,31.0,26.0,-100.00,NW,325,12.0,14.0,80,-99.99,,,-99.99,,2013-01-17 06:12:00,
2013-01-17 00:22:00,31.0,25.0,-100.00,NNW,340,10.0,12.0,80,-99.99,,,-99.99,,2013-01-17 06:22:00,
2013-01-17 00:32:00,30.0,24.0,-100.00,NNW,330,11.0,12.0,80,-99.99,,,-99.99,,2013-01-17 06:32:00,
2013-01-17 00:42:00,30.0,24.0,-100.00,NNW,330,11.0,12.0,80,-99.99,,,-99.99,,2013-01-17 06:42:00,
2013-01-17 00:52:00,29.0,24.0,-100.00,NW,325,13.0,16.0,80,-99.99,,,-99.99,,2013-01-17 06:52:00,
2013-01-17 01:02:00,29.0,24.0,-100.00,NW,325,13.0,16.0,80,-99.99,,,-99.99,,2013-01-17 07:02:00,
2013-01-17 01:12:00,29.0,24.0,-100.00,NW,325,11.0,13.0,82,-99.99,,,-99.99,,2013-01-17 07:12:00,
2013-01-17 01:22:00,28.0,23.0,-100.00,NW,320,10.0,12.0,82,-99.99,,,-99.99,,2013-01-17 07:22:00,
2013-01-17 01:32:00,28.0,22.0,-100.00,NNW,335,6.0,6.0,81,-99.99,,,-99.99,,2013-01-17 07:32:00,
2013-01-17 01:42:00,28.0,22.0,-100.00,NNW,335,6.0,6.0,81,-99.99,,,-99.99,,2013-01-17 07:42:00,
2013-01-17 01:52:00,27.0,22.0,-100.00,NNW,335,9.0,11.0,82,-99.99,,,-99.99,,2013-01-17 07:52:00,
2013-01-17 02:02:00,27.0,22.0,-100.00,NNW,335,9.0,11.0,82,-99.99,,,-99.99,,2013-01-17 08:02:00,
2013-01-17 02:12:00,27.0,22.0,-100.00,NNW,335,9.0,11.0,82,-99.99,,,-99.99,,2013-01-17 08:12:00,
2013-01-17 02:22:00,27.0,22.0,-100.00,NNW,335,9.0,11.0,82,-99.99,,,-99.99,,2013-01-17 08:22:00,
2013-01-17 02:32:00,27.0,22.0,-100.00,NNW,335,9.0,11.0,82,-99.99,,,-99.99,,2013-01-17 08:32:00,
2013-01-17 12:34:00,30.0,9.0,-100.00,NNW,335,6.0,7.0,42,-99.99,,,-99.99,,2013-01-17 18:34:00,
2013-01-17 12:44:00,30.0,9.0,-100.00,NNW,335,6.0,7.0,42,-99.99,,,-99.99,,2013-01-17 18:44:00,
2013-01-17 12:53:00,31.0,7.0,-100.00,NNW,330,4.0,6.0,35,-99.99,,,-99.99,,2013-01-17 18:53:00,
2013-01-17 13:03:00,31.0,7.0,-100.00,NNW,330,4.0,6.0,35,-99.99,,,-99.99,,2013-01-17 19:03:00,
2013-01-17 13:12:00,32.0,6.0,-100.00,NW,315,4.0,5.0,33,-99.99,,,-99.99,,2013-01-17 19:12:00,
2013-01-17 13:22:00,34.0,7.0,-100.00,NW,315,2.0,3.0,32,-99.99,,,-99.99,,2013-01-17 19:22:00,
2013-01-17 13:33:00,35.0,7.0,-100.00,NW,325,2.0,4.0,31,-99.99,,,-99.99,,2013-01-17 19:33:00,
2013-01-17 13:42:00,35.0,7.0,-100.00,NW,325,2.0,4.0,31,-99.99,,,-99.99,,2013-01-17 19:42:00,
2013-01-17 13:53:00,36.0,7.0,-100.00,NW,310,2.0,4.0,30,-99.99,,,-99.99,,2013-01-17 19:53:00,
2013-01-17 14:03:00,36.0,7.0,-100.00,NW,310,2.0,4.0,30,-99.99,,,-99.99,,2013-01-17 20:03:00,
2013-01-17 14:12:00,35.0,6.0,-100.00,SSE,165,1.0,2.0,30,-99.99,,,-99.99,,2013-01-17 20:12:00,
2013-01-17 14:23:00,35.0,7.0,-100.00,NW,305,4.0,4.0,31,-99.99,,,-99.99,,2013-01-17 20:23:00,
2013-01-17 14:33:00,37.0,9.0,-100.00,NW,310,4.0,5.0,31,-99.99,,,-99.99,,2013-01-17 20:33:00,
2013-01-17 14:43:00,37.0,9.0,-100.00,NW,310,4.0,5.0,31,-99.99,,,-99.99,,2013-01-17 20:43:00,
2013-01-17 14:53:00,36.0,9.0,-100.00,NW,305,4.0,6.0,33,-99.99,,,-99.99,,2013-01-17 20:53:00,
2013-01-17 15:03:00,36.0,9.0,-100.00,NW,305,4.0,6.0,33,-99.99,,,-99.99,,2013-01-17 21:03:00,
2013-01-17 15:13:00,37.0,10.0,-100.00,WNW,290,5.0,6.0,33,-99.99,,,-99.99,,2013-01-17 21:13:00,
2013-01-17 15:23:00,36.0,10.0,-100.00,WNW,285,5.0,6.0,34,-99.99,,,-99.99,,2013-01-17 21:23:00,
2013-01-17 15:33:00,34.0,10.0,-100.00,West,280,4.0,4.0,36,-99.99,,,-99.99,,2013-01-17 21:33:00,
2013-01-17 15:42:00,34.0,10.0,-100.00,West,280,4.0,4.0,36,-99.99,,,-99.99,,2013-01-17 21:42:00,
2013-01-17 15:52:00,37.0,12.0,-100.00,West,275,1.0,2.0,35,-99.99,,,-99.99,,2013-01-17 21:52:00,
2013-01-17 16:03:00,37.0,12.0,-100.00,West,275,1.0,2.0,35,-99.99,,,-99.99,,2013-01-17 22:03:00,
2013-01-17 16:12:00,39.0,12.0,-100.00,NW,310,2.0,3.0,34,-99.99,,,-99.99,,2013-01-17 22:12:00,
2013-01-17 16:22:00,40.0,13.0,-100.00,WNW,290,1.0,1.0,33,-99.99,,,-99.99,,2013-01-17 22:22:00,
2013-01-17 16:33:00,39.0,11.0,-100.00,South,180,2.0,3.0,32,-99.99,,,-99.99,,2013-01-17 22:33:00,
2013-01-17 16:42:00,39.0,11.0,-100.00,South,180,2.0,3.0,32,-99.99,,,-99.99,,2013-01-17 22:42:00,
2013-01-17 16:52:00,38.0,11.0,-100.00,SW,215,1.0,2.0,34,-99.99,,,-99.99,,2013-01-17 22:52:00,
2013-01-17 17:03:00,38.0,11.0,-100.00,SW,215,1.0,2.0,34,-99.99,,,-99.99,,2013-01-17 23:03:00,
2013-01-17 17:12:00,36.0,11.0,-100.00,South,185,3.0,4.0,35,-99.99,,,-99.99,,2013-01-17 23:12:00,
2013-01-17 17:22:00,35.0,11.0,-100.00,South,190,4.0,5.0,36,-99.99,,,-99.99,,2013-01-17 23:22:00,
2013-01-17 17:33:00,35.0,11.0,-100.00,South,180,5.0,6.0,37,-99.99,,,-99.99,,2013-01-17 23:33:00,
2013-01-17 17:42:00,35.0,11.0,-100.00,South,190,4.0,5.0,38,-99.99,,,-99.99,,2013-01-17 23:42:00,
2013-01-17 17:52:00,34.0,11.0,-100.00,South,185,7.0,7.0,39,-99.99,,,-99.99,,2013-01-17 23:52:00,
2013-01-17 18:02:00,34.0,11.0,-100.00,South,185,7.0,7.0,39,-99.99,,,-99.99,,2013-01-18 00:02:00,
2013-01-17 18:12:00,33.0,11.0,-100.00,South,185,6.0,7.0,40,-99.99,,,-99.99,,2013-01-18 00:12:00,
2013-01-17 18:23:00,33.0,11.0,-100.00,SSW,195,4.0,4.0,40,-99.99,,,-99.99,,2013-01-18 00:23:00,
2013-01-17 18:32:00,33.0,12.0,-100.00,South,180,5.0,6.0,41,-99.99,,,-99.99,,2013-01-18 00:32:00,
2013-01-17 18:42:00,33.0,12.0,-100.00,South,190,6.0,6.0,42,-99.99,,,-99.99,,2013-01-18 00:42:00,
2013-01-17 18:52:00,32.0,13.0,-100.00,SSW,195,6.0,6.0,44,-99.99,,,-99.99,,2013-01-18 00:52:00,
2013-01-17 19:03:00,32.0,13.0,-100.00,SSW,195,6.0,6.0,44,-99.99,,,-99.99,,2013-01-18 01:03:00,
2013-01-17 19:12:00,32.0,13.0,-100.00,SSW,210,3.0,4.0,45,-99.99,,,-99.99,,2013-01-18 01:12:00,
2013-01-17 19:22:00,32.0,13.0,-100.00,South,185,4.0,5.0,45,-99.99,,,-99.99,,2013-01-18 01:22:00,
2013-01-17 19:33:00,31.0,12.0,-100.00,South,185,1.0,2.0,47,-99.99,,,-99.99,,2013-01-18 01:33:00,
2013-01-17 19:42:00,31.0,12.0,-100.00,South,185,1.0,2.0,47,-99.99,,,-99.99,,2013-01-18 01:42:00,
2013-01-17 19:52:00,29.0,13.0,-100.00,South,180,1.0,2.0,51,-99.99,,,-99.99,,2013-01-18 01:52:00,
2013-01-17 20:02:00,29.0,13.0,-100.00,South,180,1.0,2.0,51,-99.99,,,-99.99,,2013-01-18 02:02:00,
2013-01-17 20:12:00,29.0,14.0,-100.00,South,170,2.0,2.0,53,-99.99,,,-99.99,,2013-01-18 02:12:00,
2013-01-17 20:22:00,29.0,14.0,-100.00,South,180,3.0,3.0,54,-99.99,,,-99.99,,2013-01-18 02:22:00,
2013-01-17 20:32:00,29.0,15.0,-100.00,South,185,4.0,5.0,56,-99.99,,,-99.99,,2013-01-18 02:32:00,
2013-01-17 20:42:00,29.0,15.0,-100.00,South,185,4.0,5.0,56,-99.99,,,-99.99,,2013-01-18 02:42:00,
2013-01-17 20:52:00,27.0,14.0,-100.00,South,180,2.0,2.0,59,-99.99,,,-99.99,,2013-01-18 02:52:00,
2013-01-17 21:02:00,27.0,14.0,-100.00,South,180,2.0,2.0,59,-99.99,,,-99.99,,2013-01-18 03:02:00,
2013-01-17 21:12:00,27.0,15.0,-100.00,East,100,0.0,0.0,61,-99.99,,,-99.99,,2013-01-18 03:12:00,
2013-01-17 21:22:00,26.0,15.0,-100.00,ESE,115,1.0,1.0,62,-99.99,,,-99.99,,2013-01-18 03:22:00,
2013-01-17 21:33:00,26.0,16.0,-100.00,SE,135,1.0,2.0,64,-99.99,,,-99.99,,2013-01-18 03:33:00,
2013-01-17 21:42:00,26.0,16.0,-100.00,SE,135,1.0,2.0,64,-99.99,,,-99.99,,2013-01-18 03:42:00,
2013-01-17 21:52:00,26.0,15.0,-100.00,South,170,2.0,2.0,64,-99.99,,,-99.99,,2013-01-18 03:52:00,
2013-01-17 22:02:00,26.0,15.0,-100.00,South,170,2.0,2.0,64,-99.99,,,-99.99,,2013-01-18 04:02:00,
2013-01-17 22:12:00,25.0,15.0,-100.00,ESE,110,3.0,3.0,66,-99.99,,,-99.99,,2013-01-18 04:12:00,
2013-01-17 22:22:00,25.0,15.0,-100.00,ESE,110,3.0,3.0,66,-99.99,,,-99.99,,2013-01-18 04:22:00,
2013-01-17 22:32:00,25.0,16.0,-100.00,SE,125,2.0,2.0,68,-99.99,,,-99.99,,2013-01-18 04:32:00,
2013-01-17 22:42:00,25.0,16.0,-100.00,SE,125,2.0,2.0,68,-99.99,,,-99.99,,2013-01-18 04:42:00,
2013-01-17 22:52:00,25.0,16.0,-100.00,SE,130,1.0,1.0,68,-99.99,,,-99.99,,2013-01-18 04:52:00,
2013-01-17 23:03:00,24.0,16.0,-100.00,SE,135,2.0,3.0,70,-99.99,,,-99.99,,2013-01-18 05:03:00,
2013-01-17 23:12:00,24.0,15.0,-100.00,SSE,150,2.0,2.0,70,-99.99,,,-99.99,,2013-01-18 05:12:00,
2013-01-17 23:22:00,23.0,15.0,-100.00,ESE,110,3.0,4.0,72,-99.99,,,-99.99,,2013-01-18 05:22:00,
2013-01-17 23:33:00,25.0,17.0,-100.00,SSE,150,4.0,4.0,73,-99.99,,,-99.99,,2013-01-18 05:33:00,
2013-01-17 23:42:00,25.0,17.0,-100.00,SSE,150,4.0,4.0,73,-99.99,,,-99.99,,2013-01-18 05:42:00,
2013-01-17 23:52:00,24.0,17.0,-100.00,SSE,160,0.0,1.0,73,-99.99,,,-99.99,,2013-01-18 05:52:00,